• Join FlightAware (Why Join?)
  • Login
  • US Flag 
Rudolph Flight #1: Scheduled 
08:50PM EST


 

Airport Tracker/Info


-or-


 

Live Flight TrackerFlight Track Log ✈ RPA3228 ✈ 15-Apr-2013 ✈ KDCA - KBTV

Flight Track Log - Related Links

Times and Time Zones

All times are in EDT time to prevent confusion due to time zone crossing. See the RPA3228 flight status page for this flight to view local times or setup timezone preferences in your user account.

Time Position Orientation Groundspeed Altitude Reporting Facility
EDT Latitude Longitude Course Direction KTS MPH feet Rate Location/Type
10:23AM 38.8000 -77.0333 61° Northeast 165 190 2,000  Level Potomac TRACON
10:24AM 38.7500 -77.0167 165° South 238 274 4,800 3,060 Climbing Potomac TRACON
10:25AM 38.9632 -76.6938 67° East  Level FlightAware Approximate
10:26AM 39.0091 -76.5817 57° Northeast  Level FlightAware Approximate
10:26AM 38.8231 -76.8758 56° Northeast 259 298 11,600  Level Washington Center
10:27AM 39.0528 -76.4679 63° Northeast  Level FlightAware Approximate
10:28AM 39.0998 -76.3560 61° Northeast  Level FlightAware Approximate
10:28AM 38.9250 -76.6831 56° Northeast 310 357 17,300  Level Washington Center
10:29AM 38.9781 -76.5797 57° Northeast 327 376 19,600 1,860 Climbing Washington Center
10:31AM 39.0881 -76.3564 58° Northeast 360 414 23,000 1,080 Climbing Washington Center
10:32AM 39.1431 -76.2447 58° Northeast 370 426 23,000  Level Washington Center
10:33AM 39.1644 -76.1136 78° East 365 420 23,000 240 Level Washington Center
10:34AM 39.1817 -75.9744 81° East 370 426 23,500 1,080 Climbing Washington Center
10:35AM 39.2194 -75.8461 69° East 376 433 25,200 1,800 Climbing Washington Center
10:36AM 39.2989 -75.7497 43° Northeast 378 435 27,200 1,680 Climbing Washington Center
10:37AM 39.3761 -75.6453 46° Northeast 384 442 28,600 1,620 Climbing Washington Center
10:38AM 39.4553 -75.5431 45° Northeast 403 464 30,500 1,620 Climbing Washington Center
10:39AM 39.5364 -75.4381 45° Northeast 403 464 31,900 1,200 Climbing Washington Center
10:40AM 39.6194 -75.3275 46° Northeast 409 471 33,000 540 Climbing Washington Center
10:41AM 39.6900 -75.2303 47° Northeast 409 471 33,000  Level Washington Center
10:42AM 39.7731 -75.1083 48° Northeast 409 471 33,000  Level Washington Center
10:44AM 39.8831 -74.9503 48° Northeast 412 474 33,000  Level New York Center
10:44AM 39.9686 -74.8336 46° Northeast 406 467 33,000  Level New York Center
10:46AM 40.0386 -74.7319 48° Northeast 406 467 33,000  Level New York Center
10:46AM 40.1239 -74.6119 47° Northeast 411 473 33,000  Level New York Center
10:47AM 40.1961 -74.5100 47° Northeast 416 479 33,000  Level New York Center
10:48AM 40.2844 -74.4114 40° Northeast 411 473 33,000  Level New York Center
10:49AM 40.3817 -74.3075 39° Northeast 405 466 33,000  Level New York Center
10:50AM 40.4569 -74.2214 41° Northeast 405 466 33,000  Level New York Center
10:53AM 40.6767 -73.9917 38° Northeast 397 457 33,000  Level Boston Center
10:54AM 40.7633 -73.8978 39° Northeast 397 457 33,000  Level Boston Center
10:55AM 40.8458 -73.8092 39° Northeast 392 451 33,000  Level Boston Center
10:56AM 40.9458 -73.7919 North 362 417 33,000  Level Boston Center
10:57AM 41.0667 -73.7944 359° North 349 402 33,000  Level Boston Center
10:58AM 41.1564 -73.7992 358° North 349 402 33,000  Level Boston Center
10:59AM 41.2564 -73.8042 358° North 349 402 33,000  Level Boston Center
11:00AM 41.3564 -73.8089 358° North 349 402 33,000  Level Boston Center
11:01AM 41.4564 -73.8139 358° North 354 407 33,000  Level Boston Center
11:02AM 41.5564 -73.8189 358° North 354 407 33,000  Level Boston Center
11:03AM 41.6583 -73.8239 358° North 354 407 33,000  Level Boston Center
11:04AM 41.7583 -73.8233 360° North 354 407 33,000  Level Boston Center
11:05AM 41.8564 -73.8225 360° North 354 407 33,000  Level Boston Center
11:07AM 41.9871 -73.8042 North  Level FlightAware Approximate
11:07AM 42.0503 -73.8183 North 349 402 33,000  Level Boston Center
11:08AM 42.1503 -73.8150 North 349 402 33,000  Level Boston Center
11:09AM 42.2483 -73.8144 360° North 349 402 33,000  Level Boston Center
11:10AM 42.3461 -73.8136 360° North 349 402 33,000  Level Boston Center
11:11AM 42.4547 -73.8133 360° North 349 402 33,000  Level Boston Center
11:12AM 42.5525 -73.8097 North 349 402 33,000 -360 Level Boston Center
11:13AM 42.6506 -73.8064 North 349 402 32,300 -1,080 Descending Boston Center
11:14AM 42.7486 -73.8028 North 349 402 30,900 -1,440 Descending Boston Center
11:15AM 42.8428 -73.7739 13° North 349 402 29,400 -1,560 Descending Boston Center
11:16AM 42.9267 -73.7358 18° North 349 402 27,800 -1,680 Descending Boston Center
11:17AM 43.0228 -73.7011 15° North 339 390 26,200 -1,620 Descending Boston Center
11:18AM 43.1106 -73.6717 14° North 327 376 24,700 -1,140 Descending Boston Center
11:19AM 43.1861 -73.6389 18° North 321 369 24,000 -360 Descending Boston Center
11:20AM 43.2719 -73.6092 14° North 316 364 24,000  Level Boston Center
11:21AM 43.3556 -73.5767 16° North 316 364 24,000  Level Boston Center
11:22AM 43.4392 -73.5439 16° North 316 364 24,000 -600 Level Boston Center
11:23AM 43.5250 -73.5139 14° North 316 364 22,900 -1,380 Descending Boston Center
11:24AM 43.6064 -73.4808 16° North 311 358 21,300 -1,680 Descending Boston Center
11:25AM 43.6964 -73.4508 14° North 301 346 19,600 -1,560 Descending Boston Center
11:26AM 43.7717 -73.4233 15° North 291 335 18,200 -1,200 Descending Boston Center
11:27AM 43.8428 -73.3958 16° North 276 318 17,300 -1,140 Descending Boston Center
11:28AM 43.9139 -73.3681 16° North 262 302 16,000 -1,320 Descending Boston Center
11:29AM 43.9806 -73.3431 15° North 257 296 14,700 -1,380 Descending Boston Center
11:30AM 44.0475 -73.3325 North 251 289 13,300 -1,680 Descending Boston Center
11:31AM 44.1100 -73.3219 North 235 270 11,500 -1,680 Descending Boston Center
11:32AM 44.1725 -73.3114 North 235 270 10,000 -1,620 Descending Boston Center
11:33AM 44.2269 -73.3033 North 225 259 8,300 -1,980 Descending Boston Center
11:34AM 44.2853 -73.2928 North 215 247 6,100 -2,160 Descending Boston Center
11:35AM 44.3458 -73.2878 North 215 247 4,000 -1,320 Descending Boston Center
11:36AM 44.4061 -73.2886 359° North 215 247 3,600 -900 Descending Boston Center
11:37AM 44.4622 -73.2953 355° North 210 242 2,300 -1,320 Descending Boston Center